Time;durP1;ratioP1;P1;durP2;ratioP2;P2;SDS_P1;SDS_P2;PMS_P1;PMS_P2;Temp;Humidity;BMP_temperature;BMP_pressure;BME280_temperature;BME280_humidity;BME280_pressure;Samples;Min_cycle;Max_cycle;Signal;HPM_P1;HPM_P2
2021/03/05 00:03:29;;;;;;;133.73;50.30;;;6.30;88.10;;;;;;8228908;28;20536;-74
2021/03/05 00:07:30;;;;;;;118.90;44.40;;;6.30;88.20;;;;;;8223963;28;20452;-74
2021/03/05 00:11:30;;;;;;;114.87;37.30;;;6.30;88.10;;;;;;8216408;28;20309;-74
2021/03/05 00:15:34;;;;;;;92.23;34.47;;;6.30;87.90;;;;;;8216651;28;20496;-74
2021/03/05 00:19:35;;;;;;;74.23;31.17;;;6.30;87.90;;;;;;8219870;28;20209;-74
2021/03/05 00:23:36;;;;;;;82.90;32.13;;;6.20;87.60;;;;;;8226594;28;20475;-74
2021/03/05 00:27:37;;;;;;;74.33;30.57;;;6.10;87.50;;;;;;8220313;28;20476;-74
2021/03/05 00:31:37;;;;;;;76.53;27.97;;;6.10;87.60;;;;;;8215998;28;20205;-74
2021/03/05 00:35:38;;;;;;;82.20;30.63;;;6.10;87.40;;;;;;8217903;28;20488;-74
2021/03/05 00:39:42;;;;;;;79.53;30.90;;;6.00;87.20;;;;;;8214307;28;20302;-74
2021/03/05 00:43:46;;;;;;;88.27;33.20;;;6.00;87.20;;;;;;8221502;28;20462;-74
2021/03/05 00:47:55;;;;;;;91.10;29.93;;;6.00;87.80;;;;;;8210802;28;20449;-74
2021/03/05 00:51:56;;;;;;;87.03;32.10;;;6.00;87.30;;;;;;8220927;28;20486;-74
2021/03/05 00:56:01;;;;;;;80.33;30.63;;;6.00;87.20;;;;;;8229196;28;20492;-74
2021/03/05 01:00:08;;;;;;;65.97;30.70;;;6.00;87.00;;;;;;8212469;28;20465;-74
2021/03/05 01:04:12;;;;;;;61.83;28.00;;;5.90;86.70;;;;;;8230277;28;20190;-74
2021/03/05 01:08:16;;;;;;;62.93;27.67;;;5.90;86.70;;;;;;8224819;28;20479;-74
2021/03/05 01:12:21;;;;;;;65.60;25.80;;;5.90;86.50;;;;;;8224597;28;20463;-74
2021/03/05 01:16:24;;;;;;;62.80;27.77;;;5.90;86.50;;;;;;8224473;28;20814;-74
2021/03/05 01:20:27;;;;;;;70.30;27.77;;;5.80;86.60;;;;;;8228856;28;20475;-74
2021/03/05 01:24:31;;;;;;;57.00;22.33;;;5.90;86.70;;;;;;8228485;28;20564;-74
2021/03/05 01:28:40;;;;;;;48.47;24.80;;;5.80;86.70;;;;;;8230935;28;20452;-74
2021/03/05 01:32:42;;;;;;;76.70;27.07;;;5.80;86.80;;;;;;8223654;28;20511;-74
2021/03/05 01:36:46;;;;;;;70.27;26.60;;;5.80;86.90;;;;;;8218456;28;20456;-74
2021/03/05 01:40:47;;;;;;;59.83;22.83;;;5.80;86.90;;;;;;8222694;28;20453;-74
2021/03/05 01:44:52;;;;;;;68.20;24.53;;;5.80;87.10;;;;;;8218880;28;20450;-74
2021/03/05 01:48:52;;;;;;;73.40;22.07;;;5.70;87.00;;;;;;8228152;28;20454;-74
2021/03/05 01:53:05;;;;;;;48.73;20.77;;;5.70;86.90;;;;;;8226023;28;20287;-74
2021/03/05 01:57:10;;;;;;;56.13;23.13;;;5.70;86.80;;;;;;8219944;28;20444;-73
2021/03/05 02:01:15;;;;;;;65.37;25.60;;;5.70;86.70;;;;;;8222184;28;20882;-76
2021/03/05 02:05:23;;;;;;;58.43;19.40;;;5.70;86.60;;;;;;8224278;28;20457;-76
2021/03/05 02:09:27;;;;;;;48.77;18.40;;;5.70;86.70;;;;;;8225695;28;20480;-76
2021/03/05 02:13:28;;;;;;;50.60;18.07;;;5.70;86.70;;;;;;8220893;28;20487;-76
2021/03/05 02:18:07;;;;;;;33.67;12.80;;;5.70;86.50;;;;;;8225473;28;20189;-76
2021/03/05 02:22:31;;;;;;;35.40;12.30;;;5.60;85.80;;;;;;8217476;28;20448;-76
2021/03/05 02:27:01;;;;;;;26.20;10.13;;;5.40;85.40;;;;;;8220185;28;21277;-76
2021/03/05 02:31:19;;;;;;;26.70;12.40;;;5.40;85.80;;;;;;8223998;28;21210;-76
2021/03/05 02:35:26;;;;;;;39.40;11.70;;;5.30;86.00;;;;;;8225666;28;20478;-76
2021/03/05 02:39:53;;;;;;;30.60;9.83;;;5.30;85.90;;;;;;8222515;28;21314;-76
2021/03/05 02:43:56;;;;;;;28.83;10.97;;;5.30;85.60;;;;;;8226043;28;21300;-76
2021/03/05 02:48:08;;;;;;;42.23;12.57;;;5.30;85.70;;;;;;8217680;28;20459;-76
2021/03/05 02:52:15;;;;;;;36.83;11.97;;;5.40;85.70;;;;;;8221170;28;20460;-76
2021/03/05 02:56:21;;;;;;;30.40;11.80;;;5.30;85.50;;;;;;8227420;28;20465;-76
2021/03/05 03:00:30;;;;;;;23.37;10.30;;;5.30;85.40;;;;;;8225976;28;20743;-76
2021/03/05 03:04:45;;;;;;;25.90;10.60;;;5.30;85.30;;;;;;8225278;28;21236;-76
2021/03/05 03:08:47;;;;;;;34.83;9.60;;;5.30;84.60;;;;;;8232666;28;21040;-76
2021/03/05 03:13:00;;;;;;;29.27;13.33;;;5.20;84.90;;;;;;8214575;28;20559;-76
2021/03/05 03:17:01;;;;;;;27.77;9.80;;;5.20;85.20;;;;;;8214779;28;20440;-76
2021/03/05 03:21:08;;;;;;;20.93;9.23;;;5.20;85.20;;;;;;8208927;28;20485;-76
2021/03/05 03:25:11;;;;;;;32.80;9.73;;;5.20;85.30;;;;;;8218741;28;20457;-76
2021/03/05 03:29:17;;;;;;;18.40;8.33;;;5.20;85.30;;;;;;8222112;28;20454;-76
2021/03/05 03:33:19;;;;;;;21.63;8.50;;;5.20;85.30;;;;;;8207770;28;20506;-75
2021/03/05 03:37:22;;;;;;;52.13;10.13;;;5.20;85.40;;;;;;8219947;28;20455;-76
2021/03/05 03:41:23;;;;;;;23.13;9.30;;;5.20;85.30;;;;;;8223288;28;20474;-76
2021/03/05 03:45:23;;;;;;;33.90;8.80;;;5.20;85.40;;;;;;8226725;28;20478;-75
2021/03/05 03:49:57;;;;;;;22.07;8.80;;;5.20;85.20;;;;;;8222026;28;20306;-75
2021/03/05 03:53:59;;;;;;;21.30;8.73;;;5.20;85.40;;;;;;8214439;28;20694;-76
2021/03/05 03:58:05;;;;;;;29.63;9.33;;;5.20;85.50;;;;;;8220769;28;21038;-75
2021/03/05 04:02:12;;;;;;;38.83;10.03;;;5.30;85.30;;;;;;8225587;28;20536;-75
2021/03/05 04:06:15;;;;;;;31.93;9.50;;;5.30;85.10;;;;;;8215423;28;20440;-74
2021/03/05 04:10:19;;;;;;;22.67;10.47;;;5.30;85.10;;;;;;8219546;28;20471;-75
2021/03/05 04:14:22;;;;;;;37.90;11.93;;;5.30;85.50;;;;;;8242504;28;20480;-75
2021/03/05 04:18:40;;;;;;;26.60;11.67;;;5.30;86.00;;;;;;8219222;28;20440;-75
2021/03/05 04:22:49;;;;;;;38.30;14.20;;;5.30;86.40;;;;;;8224940;28;20523;-75
2021/03/05 04:26:50;;;;;;;45.17;16.30;;;5.20;86.90;;;;;;8220961;28;20460;-75
2021/03/05 04:30:50;;;;;;;63.70;19.77;;;5.20;87.40;;;;;;8210217;28;20457;-75
2021/03/05 04:34:55;;;;;;;49.60;17.30;;;5.20;87.70;;;;;;8231114;28;20243;-75
2021/03/05 04:39:03;;;;;;;39.70;16.07;;;5.20;87.90;;;;;;8229557;28;20521;-75
2021/03/05 04:43:07;;;;;;;54.73;17.50;;;5.30;88.00;;;;;;8223055;28;20261;-75
2021/03/05 04:47:14;;;;;;;45.83;17.77;;;5.30;88.30;;;;;;8228828;28;20480;-75
2021/03/05 04:51:18;;;;;;;61.10;22.40;;;5.30;88.40;;;;;;8224820;28;20462;-75
2021/03/05 04:55:22;;;;;;;49.93;18.90;;;5.30;88.50;;;;;;8227648;28;20526;-75
2021/03/05 04:59:27;;;;;;;51.93;20.87;;;5.40;88.40;;;;;;8224154;28;20448;-75
2021/03/05 05:03:27;;;;;;;68.33;21.20;;;5.40;88.30;;;;;;8226500;28;20449;-75
2021/03/05 05:07:28;;;;;;;71.13;22.93;;;5.40;88.30;;;;;;8209949;28;20997;-75
2021/03/05 05:11:33;;;;;;;75.83;26.77;;;5.50;88.30;;;;;;8254918;28;20202;-74
2021/03/05 05:15:37;;;;;;;66.37;25.23;;;5.50;88.30;;;;;;8225255;28;20480;-75
2021/03/05 05:19:38;;;;;;;78.10;32.23;;;5.50;88.30;;;;;;8209455;28;20531;-75
2021/03/05 05:23:38;;;;;;;82.47;31.80;;;5.50;88.10;;;;;;8208293;28;20231;-75
2021/03/05 05:27:43;;;;;;;79.10;31.60;;;5.60;88.00;;;;;;8229924;28;20279;-74
2021/03/05 05:31:53;;;;;;;83.20;31.50;;;5.60;88.00;;;;;;8214257;28;20457;-74
2021/03/05 05:36:02;;;;;;;73.97;29.90;;;5.50;87.70;;;;;;8223361;28;20608;-75
2021/03/05 05:40:06;;;;;;;64.97;28.57;;;5.60;87.60;;;;;;8228606;28;20829;-75
2021/03/05 05:44:08;;;;;;;62.37;28.70;;;5.60;87.30;;;;;;8228844;28;20460;-74
2021/03/05 05:48:18;;;;;;;71.20;32.77;;;5.60;87.00;;;;;;8218521;28;20453;-75
2021/03/05 05:52:25;;;;;;;68.93;27.77;;;5.50;86.80;;;;;;8223627;28;20484;-75
2021/03/05 05:56:31;;;;;;;56.37;27.90;;;5.50;86.40;;;;;;8223224;28;20507;-76
2021/03/05 06:00:35;;;;;;;57.60;22.33;;;5.50;85.60;;;;;;8232010;28;20472;-75
2021/03/05 06:04:44;;;;;;;47.20;25.00;;;5.50;85.10;;;;;;8220412;28;20461;-75
2021/03/05 06:08:49;;;;;;;55.37;25.13;;;5.50;84.80;;;;;;8227738;28;20837;-75
2021/03/05 06:12:49;;;;;;;50.57;23.83;;;5.50;84.50;;;;;;8213883;28;20833;-74
2021/03/05 06:17:01;;;;;;;60.07;26.90;;;5.50;83.80;;;;;;8221817;28;20285;-75
2021/03/05 06:21:01;;;;;;;63.33;28.00;;;5.40;83.90;;;;;;8203424;28;20483;-76
2021/03/05 06:25:03;;;;;;;61.33;27.73;;;5.40;83.60;;;;;;8220381;28;20468;-74
2021/03/05 06:29:05;;;;;;;56.87;28.30;;;5.40;83.90;;;;;;8212678;28;20451;-74
2021/03/05 06:33:28;;;;;;;56.00;27.10;;;5.40;84.00;;;;;;8222915;28;20477;-75
2021/03/05 06:37:44;;;;;;;57.60;25.30;;;5.50;84.20;;;;;;8221028;28;20452;-76
2021/03/05 06:41:57;;;;;;;51.63;24.50;;;5.40;84.40;;;;;;8228470;28;20502;-76
2021/03/05 06:46:25;;;;;;;45.77;22.13;;;5.50;83.20;;;;;;8222871;28;20452;-76
2021/03/05 06:50:26;;;;;;;47.17;22.43;;;5.50;83.10;;;;;;8230246;28;20482;-75
2021/03/05 06:54:37;;;;;;;40.10;21.47;;;5.50;83.00;;;;;;8211286;28;20484;-75
2021/03/05 06:58:40;;;;;;;41.40;19.50;;;5.50;82.80;;;;;;8209386;28;20198;-75
2021/03/05 07:02:43;;;;;;;44.87;23.20;;;5.50;82.50;;;;;;8200425;28;20463;-75
2021/03/05 07:06:54;;;;;;;45.50;21.80;;;5.60;82.20;;;;;;8202674;28;20481;-75
2021/03/05 07:10:59;;;;;;;33.17;18.33;;;5.60;81.90;;;;;;8234489;28;20472;-75
2021/03/05 07:15:05;;;;;;;42.77;21.93;;;5.70;81.80;;;;;;8214970;28;20471;-76
2021/03/05 07:19:08;;;;;;;42.03;19.97;;;5.70;81.40;;;;;;8224409;28;20446;-75
2021/03/05 07:23:09;;;;;;;32.73;17.33;;;5.80;81.20;;;;;;8224763;28;20473;-76
2021/03/05 07:27:10;;;;;;;36.37;19.53;;;5.80;80.10;;;;;;8208675;28;20576;-76
2021/03/05 07:31:17;;;;;;;34.33;16.97;;;5.90;80.70;;;;;;8210204;28;20295;-74
2021/03/05 07:35:18;;;;;;;33.40;17.50;;;6.00;79.90;;;;;;8224438;28;20833;-75
2021/03/05 07:39:24;;;;;;;34.03;17.77;;;6.00;79.80;;;;;;8230733;28;20437;-75
2021/03/05 07:43:42;;;;;;;29.17;15.00;;;6.10;78.80;;;;;;8229316;28;20938;-75
2021/03/05 07:47:45;;;;;;;27.30;14.40;;;6.20;79.10;;;;;;8195894;28;20455;-75
2021/03/05 07:51:47;;;;;;;32.67;17.37;;;6.40;78.70;;;;;;8232591;28;21014;-75
2021/03/05 07:55:50;;;;;;;28.70;17.23;;;6.60;79.00;;;;;;8213658;28;20511;-75
2021/03/05 07:59:52;;;;;;;30.33;16.80;;;6.70;78.00;;;;;;8217945;28;20449;-75
2021/03/05 08:03:55;;;;;;;34.53;19.30;;;7.30;77.10;;;;;;8231041;28;21073;-75
2021/03/05 08:08:23;;;;;;;46.80;24.97;;;7.80;74.30;;;;;;8211622;28;20576;-75
2021/03/05 08:16:39;;;;;;;44.80;23.93;;;8.20;72.30;;;;;;8223577;28;20453;-74
2021/03/05 08:20:39;;;;;;;36.67;20.60;;;7.90;71.90;;;;;;8229127;28;20449;-75
2021/03/05 08:24:42;;;;;;;26.87;14.70;;;7.70;72.40;;;;;;8223017;28;20547;-75
2021/03/05 08:28:58;;;;;;;25.13;14.07;;;8.10;73.50;;;;;;8218938;28;20646;-75
2021/03/05 08:33:27;;;;;;;22.23;14.67;;;9.60;70.20;;;;;;8226655;28;20523;-76
2021/03/05 08:37:32;;;;;;;18.70;13.10;;;11.40;64.20;;;;;;8220205;28;20445;-75
2021/03/05 08:41:38;;;;;;;18.50;11.13;;;12.50;61.70;;;;;;8217862;28;20448;-75
2021/03/05 08:45:49;;;;;;;13.40;10.33;;;12.60;57.20;;;;;;8225793;28;20455;-78
2021/03/05 08:49:53;;;;;;;17.07;11.40;;;13.10;56.10;;;;;;8223816;28;20542;-75
2021/03/05 08:53:57;;;;;;;14.30;10.30;;;13.80;52.00;;;;;;8216972;28;21053;-75
2021/03/05 08:57:58;;;;;;;12.33;9.97;;;13.60;51.80;;;;;;8206869;28;21052;-76
2021/03/05 09:02:12;;;;;;;16.70;9.10;;;13.50;52.30;;;;;;8222078;28;20186;-76
2021/03/05 09:06:20;;;;;;;12.77;8.17;;;13.70;52.60;;;;;;8218013;28;20528;-76
2021/03/05 09:10:38;;;;;;;14.27;9.17;;;13.90;49.50;;;;;;8209480;28;20514;-76
2021/03/05 09:14:46;;;;;;;13.80;8.33;;;13.40;50.30;;;;;;8238370;28;20624;-76
2021/03/05 09:18:53;;;;;;;12.30;8.03;;;13.60;50.40;;;;;;8200932;28;20479;-76
2021/03/05 09:22:57;;;;;;;9.27;6.50;;;14.00;48.70;;;;;;8228243;28;20450;-75
2021/03/05 09:27:25;;;;;;;9.20;6.87;;;14.20;48.00;;;;;;8214837;28;20444;-76
2021/03/05 09:31:33;;;;;;;8.30;6.83;;;14.50;48.40;;;;;;8222023;28;20448;-77
2021/03/05 09:35:35;;;;;;;10.97;6.80;;;14.40;46.20;;;;;;8204931;28;20515;-76
2021/03/05 09:39:48;;;;;;;9.60;7.33;;;14.40;48.70;;;;;;8218502;28;20829;-76
2021/03/05 09:44:10;;;;;;;9.70;7.43;;;14.90;46.80;;;;;;8231352;28;20457;-76
2021/03/05 09:48:30;;;;;;;9.77;7.30;;;14.80;46.40;;;;;;8219298;28;20452;-76
2021/03/05 09:52:33;;;;;;;7.67;6.50;;;14.90;46.00;;;;;;8217335;28;20902;-76
2021/03/05 09:56:46;;;;;;;12.80;7.87;;;15.10;44.90;;;;;;8224235;28;21139;-75
2021/03/05 10:00:55;;;;;;;8.63;6.30;;;15.00;44.20;;;;;;8237902;28;20449;-75
2021/03/05 10:04:56;;;;;;;9.47;6.70;;;14.70;44.20;;;;;;8241650;28;20441;-75
2021/03/05 10:08:59;;;;;;;7.10;6.40;;;14.40;45.30;;;;;;8210103;28;20835;-74
2021/03/05 10:13:00;;;;;;;8.33;6.73;;;14.00;45.00;;;;;;8216195;28;20214;-76
2021/03/05 10:17:10;;;;;;;8.90;6.50;;;13.90;45.80;;;;;;8213473;28;20445;-75
2021/03/05 10:21:16;;;;;;;6.73;6.10;;;14.30;47.60;;;;;;8225725;28;20993;-76
2021/03/05 10:25:20;;;;;;;10.23;6.07;;;14.80;46.10;;;;;;8217349;28;20460;-75
2021/03/05 10:29:36;;;;;;;8.27;6.50;;;14.50;45.00;;;;;;8225573;28;20448;-75
2021/03/05 10:33:47;;;;;;;6.97;5.60;;;14.10;44.50;;;;;;8222689;28;20467;-77
2021/03/05 10:37:50;;;;;;;5.77;5.07;;;13.70;45.00;;;;;;8215936;28;20538;-75
2021/03/05 10:41:54;;;;;;;8.93;6.10;;;13.80;44.90;;;;;;8210046;28;20954;-74
2021/03/05 10:45:57;;;;;;;11.10;7.03;;;14.00;42.40;;;;;;8211006;28;20495;-75
2021/03/05 10:49:58;;;;;;;6.50;5.27;;;14.20;48.50;;;;;;8217638;28;20454;-75
2021/03/05 10:54:00;;;;;;;5.33;4.83;;;14.90;45.40;;;;;;8219835;28;20552;-77
2021/03/05 10:58:01;;;;;;;10.17;5.27;;;14.30;43.70;;;;;;8213740;28;20200;-75
2021/03/05 11:02:09;;;;;;;7.63;6.07;;;14.10;44.20;;;;;;8236108;28;20957;-76
2021/03/05 11:06:16;;;;;;;8.80;5.60;;;14.20;47.70;;;;;;8230997;28;20450;-75
2021/03/05 11:10:20;;;;;;;13.63;6.27;;;13.90;46.90;;;;;;8228701;28;20955;-76
2021/03/05 11:14:27;;;;;;;11.83;6.87;;;13.20;45.50;;;;;;8222915;28;20477;-76
2021/03/05 11:18:30;;;;;;;8.20;6.57;;;12.90;49.10;;;;;;8222891;28;20548;-75
2021/03/05 11:22:31;;;;;;;10.50;7.93;;;12.90;49.30;;;;;;8220071;28;20554;-76
2021/03/05 11:26:33;;;;;;;8.70;7.00;;;12.90;50.50;;;;;;8226055;28;20471;-75
2021/03/05 11:30:34;;;;;;;9.60;6.03;;;13.00;49.30;;;;;;8211982;28;20449;-75
2021/03/05 11:34:37;;;;;;;13.10;6.13;;;13.00;49.50;;;;;;8204371;28;20477;-75
2021/03/05 11:38:42;;;;;;;7.90;5.13;;;12.60;49.20;;;;;;8202264;28;20475;-73
2021/03/05 11:42:42;;;;;;;10.83;5.50;;;12.00;49.40;;;;;;8218607;28;20466;-74
2021/03/05 11:46:49;;;;;;;9.10;5.30;;;11.80;50.20;;;;;;8216241;28;20439;-72
2021/03/05 11:50:50;;;;;;;9.20;5.17;;;12.10;49.00;;;;;;8217491;28;20492;-73
2021/03/05 11:54:52;;;;;;;9.67;5.87;;;11.70;48.90;;;;;;8226750;28;20473;-74
2021/03/05 11:58:53;;;;;;;6.50;4.23;;;11.60;49.90;;;;;;8216945;28;20458;-73
2021/03/05 12:02:59;;;;;;;6.20;4.90;;;11.60;48.60;;;;;;8213729;28;20468;-74
2021/03/05 12:07:04;;;;;;;6.87;4.93;;;11.40;48.30;;;;;;8223671;28;20567;-75
2021/03/05 12:11:05;;;;;;;11.70;5.63;;;11.40;49.50;;;;;;8204090;28;21202;-75
2021/03/05 12:15:08;;;;;;;7.97;4.73;;;11.60;49.80;;;;;;8208434;28;20469;-76
2021/03/05 12:19:09;;;;;;;7.00;6.23;;;11.60;49.00;;;;;;8217040;28;20532;-76
2021/03/05 12:23:12;;;;;;;11.00;6.10;;;12.00;49.50;;;;;;8227774;28;20526;-76
2021/03/05 12:27:13;;;;;;;6.27;4.67;;;11.80;49.20;;;;;;8221995;28;20546;-75
2021/03/05 12:31:16;;;;;;;4.83;4.43;;;11.40;47.30;;;;;;8221171;28;20452;-76
2021/03/05 12:35:20;;;;;;;5.13;4.63;;;11.10;48.30;;;;;;8222602;28;20485;-76
2021/03/05 12:39:23;;;;;;;5.83;5.03;;;10.90;49.20;;;;;;8220490;28;20450;-75
2021/03/05 12:43:34;;;;;;;7.00;6.30;;;10.70;49.80;;;;;;8198197;28;20456;-76
2021/03/05 12:47:35;;;;;;;5.93;5.43;;;11.00;51.20;;;;;;8219689;28;20456;-77
2021/03/05 12:51:38;;;;;;;6.73;5.70;;;11.40;48.70;;;;;;8240369;28;20456;-77
2021/03/05 12:55:40;;;;;;;6.00;4.50;;;11.60;48.40;;;;;;8206925;28;20485;-76
2021/03/05 12:59:43;;;;;;;7.20;5.00;;;11.60;48.80;;;;;;8205240;28;20825;-76
2021/03/05 13:03:44;;;;;;;5.60;5.10;;;11.80;48.10;;;;;;8217421;28;20456;-78
2021/03/05 13:07:45;;;;;;;6.57;4.97;;;11.50;48.40;;;;;;8223865;28;20472;-76
2021/03/05 13:11:47;;;;;;;9.90;5.13;;;11.20;48.90;;;;;;8221934;28;20194;-77
2021/03/05 13:15:48;;;;;;;9.80;5.30;;;10.90;50.10;;;;;;8237205;28;20484;-76
2021/03/05 13:19:51;;;;;;;6.80;5.50;;;10.70;50.80;;;;;;8220974;28;20460;-76
2021/03/05 13:23:55;;;;;;;4.07;3.67;;;10.60;49.40;;;;;;8222137;28;20342;-76
2021/03/05 13:27:57;;;;;;;5.10;4.60;;;10.60;49.20;;;;;;8213153;28;20626;-77
2021/03/05 13:32:00;;;;;;;9.53;5.50;;;11.00;48.40;;;;;;8234149;28;20198;-77
2021/03/05 13:36:06;;;;;;;21.23;5.97;;;11.30;48.60;;;;;;8227776;28;21001;-77
2021/03/05 13:40:08;;;;;;;5.33;4.83;;;11.20;49.60;;;;;;8224476;28;20470;-77
2021/03/05 13:44:11;;;;;;;5.77;5.27;;;11.00;47.60;;;;;;8221469;28;20462;-77
2021/03/05 13:48:13;;;;;;;5.17;4.67;;;10.70;48.10;;;;;;8214632;28;20467;-76
2021/03/05 13:52:28;;;;;;;4.97;4.57;;;10.50;48.70;;;;;;8230297;28;20447;-78
2021/03/05 13:56:32;;;;;;;10.30;4.90;;;10.50;49.50;;;;;;8208058;28;20556;-77
2021/03/05 14:00:35;;;;;;;6.73;4.80;;;10.90;48.60;;;;;;8211316;28;21177;-78
2021/03/05 14:04:37;;;;;;;9.97;5.67;;;11.20;47.40;;;;;;8229793;28;20456;-79
2021/03/05 14:08:45;;;;;;;5.67;5.17;;;11.20;46.70;;;;;;8232830;28;20469;-78
2021/03/05 14:12:57;;;;;;;5.13;4.70;;;10.90;46.70;;;;;;8238732;28;20805;-77
2021/03/05 14:17:01;;;;;;;11.00;5.57;;;10.40;47.20;;;;;;8231752;28;20783;-75
2021/03/05 14:21:04;;;;;;;7.23;4.67;;;9.90;48.20;;;;;;8263910;28;20453;-76
2021/03/05 14:25:09;;;;;;;5.87;4.83;;;10.20;48.80;;;;;;8225967;28;20464;-78
2021/03/05 14:29:15;;;;;;;6.27;4.47;;;10.80;46.30;;;;;;8222008;28;20449;-78
2021/03/05 14:33:20;;;;;;;10.80;6.67;;;11.70;45.80;;;;;;8225356;28;20473;-77
2021/03/05 14:37:29;;;;;;;7.80;5.80;;;11.90;44.50;;;;;;8228544;28;20445;-77
2021/03/05 14:41:44;;;;;;;7.57;6.50;;;11.20;45.20;;;;;;8215254;28;20501;-76
2021/03/05 14:45:50;;;;;;;6.67;4.83;;;10.30;46.70;;;;;;8227696;28;20960;-77
2021/03/05 14:49:52;;;;;;;7.83;4.77;;;9.70;48.60;;;;;;8224708;28;20445;-76
2021/03/05 14:53:53;;;;;;;9.60;4.90;;;9.50;48.90;;;;;;8239938;28;20558;-77
2021/03/05 14:58:02;;;;;;;10.37;5.93;;;9.50;48.00;;;;;;8230874;28;20453;-77
2021/03/05 15:02:06;;;;;;;6.13;4.37;;;9.80;46.60;;;;;;8219861;28;21368;-77
2021/03/05 15:06:11;;;;;;;6.30;4.43;;;10.00;44.60;;;;;;8231770;28;20457;-76
2021/03/05 15:10:16;;;;;;;5.40;4.43;;;10.20;44.80;;;;;;8222413;28;21095;-76
2021/03/05 15:14:26;;;;;;;5.30;4.57;;;10.00;44.60;;;;;;8222464;28;20985;-74
2021/03/05 15:18:32;;;;;;;8.23;4.70;;;9.90;44.10;;;;;;8208988;28;20464;-77
2021/03/05 15:22:36;;;;;;;5.33;4.40;;;9.90;43.90;;;;;;8224744;28;20441;-78
2021/03/05 15:26:37;;;;;;;7.20;5.27;;;10.10;43.10;;;;;;8222846;28;20474;-77
2021/03/05 15:30:40;;;;;;;5.97;4.80;;;10.10;44.30;;;;;;8224464;28;20216;-77
2021/03/05 15:34:43;;;;;;;6.30;4.30;;;10.30;45.00;;;;;;8222894;28;20218;-78
2021/03/05 15:38:52;;;;;;;6.50;4.97;;;10.60;44.70;;;;;;8229587;28;20449;-77
2021/03/05 15:42:54;;;;;;;7.47;5.27;;;10.60;44.70;;;;;;8232653;28;20479;-78
2021/03/05 15:46:55;;;;;;;6.03;4.20;;;10.50;45.30;;;;;;8232451;28;20531;-78
2021/03/05 15:50:55;;;;;;;5.70;4.53;;;10.50;43.60;;;;;;8227418;28;20480;-77
2021/03/05 15:55:00;;;;;;;7.13;4.40;;;10.20;44.20;;;;;;8223603;28;20233;-77
2021/03/05 15:59:05;;;;;;;7.97;4.73;;;9.60;44.80;;;;;;8229649;28;20443;-79
2021/03/05 16:03:10;;;;;;;7.33;5.10;;;9.10;45.40;;;;;;8241929;28;20481;-77
2021/03/05 16:07:11;;;;;;;8.03;4.17;;;8.90;45.80;;;;;;8205181;28;20549;-77
2021/03/05 16:11:19;;;;;;;3.87;3.30;;;8.70;46.10;;;;;;8222920;28;20466;-77
2021/03/05 16:15:21;;;;;;;5.77;2.90;;;8.60;44.80;;;;;;8228259;28;20894;-78
2021/03/05 16:19:26;;;;;;;6.50;3.83;;;8.70;44.90;;;;;;8226536;28;20550;-77
2021/03/05 16:23:30;;;;;;;4.27;3.30;;;8.90;44.80;;;;;;8215414;28;20450;-77
2021/03/05 16:27:33;;;;;;;3.10;2.90;;;9.10;43.80;;;;;;8238217;28;20561;-77
2021/03/05 16:31:46;;;;;;;2.80;2.47;;;9.40;43.10;;;;;;8239213;28;20964;-76
2021/03/05 16:35:46;;;;;;;6.40;3.00;;;9.30;42.80;;;;;;8234924;28;20785;-76
2021/03/05 16:39:47;;;;;;;4.83;2.90;;;8.90;44.00;;;;;;8232690;28;20477;-77
2021/03/05 16:44:01;;;;;;;3.63;2.80;;;8.50;43.80;;;;;;8233019;28;20208;-78
2021/03/05 16:48:11;;;;;;;4.43;3.17;;;8.10;45.80;;;;;;8232947;28;20461;-77
2021/03/05 16:52:23;;;;;;;6.80;4.07;;;7.80;46.80;;;;;;8228506;28;20451;-77
2021/03/05 16:56:24;;;;;;;4.00;3.60;;;7.60;47.30;;;;;;8215491;28;20475;-77
2021/03/05 17:00:31;;;;;;;4.47;3.23;;;7.30;47.50;;;;;;8240663;28;20535;-76
2021/03/05 17:04:33;;;;;;;4.70;3.87;;;7.20;48.40;;;;;;8200335;28;20446;-76
2021/03/05 17:08:35;;;;;;;3.77;3.47;;;7.00;49.10;;;;;;8211296;28;20477;-76
2021/03/05 17:12:42;;;;;;;4.50;4.07;;;6.90;48.90;;;;;;8230578;28;20533;-77
2021/03/05 17:16:49;;;;;;;3.30;3.10;;;6.70;49.00;;;;;;8235393;28;20449;-76
2021/03/05 17:20:50;;;;;;;9.00;4.37;;;6.60;49.60;;;;;;8234865;28;20440;-77
2021/03/05 17:24:51;;;;;;;3.97;2.83;;;6.40;50.60;;;;;;8194158;28;20535;-76
2021/03/05 17:29:00;;;;;;;5.10;3.93;;;6.30;49.90;;;;;;8229691;28;20219;-77
2021/03/05 17:33:01;;;;;;;5.93;4.17;;;6.10;51.30;;;;;;8225470;28;20453;-76
2021/03/05 17:37:04;;;;;;;6.17;4.13;;;6.00;51.40;;;;;;8227324;28;20527;-77
2021/03/05 17:41:04;;;;;;;4.60;4.20;;;5.80;54.70;;;;;;8215597;28;20449;-77
2021/03/05 17:45:22;;;;;;;4.00;3.60;;;5.60;54.70;;;;;;8223427;28;20440;-74
2021/03/05 17:49:31;;;;;;;5.40;3.13;;;5.30;57.70;;;;;;8227829;28;20441;-74
2021/03/05 17:53:37;;;;;;;4.93;4.53;;;5.20;58.20;;;;;;8224734;28;20217;-77
2021/03/05 17:57:44;;;;;;;5.27;4.70;;;5.00;57.90;;;;;;8226861;28;20536;-76
2021/03/05 18:01:49;;;;;;;9.00;5.20;;;4.80;58.30;;;;;;8226069;28;20484;-76
2021/03/05 18:05:50;;;;;;;17.63;4.97;;;4.60;59.20;;;;;;8220339;28;20445;-76
2021/03/05 18:09:51;;;;;;;9.50;6.37;;;4.40;60.00;;;;;;8224201;28;20481;-78
2021/03/05 18:13:54;;;;;;;8.60;7.80;;;4.30;61.20;;;;;;8212093;28;20822;-76
2021/03/05 18:17:54;;;;;;;9.80;8.37;;;4.10;61.20;;;;;;8217304;28;20455;-79
2021/03/05 18:21:56;;;;;;;15.77;10.47;;;3.90;62.50;;;;;;8223761;28;20441;-76
2021/03/05 18:26:02;;;;;;;21.00;15.00;;;3.80;64.30;;;;;;8219918;28;20274;-77
2021/03/05 18:30:04;;;;;;;74.00;35.77;;;3.60;63.60;;;;;;8221207;28;20453;-77
2021/03/05 18:34:13;;;;;;;57.47;25.80;;;3.50;63.00;;;;;;8219892;28;21271;-78
2021/03/05 18:38:23;;;;;;;52.47;27.80;;;3.40;63.80;;;;;;8219290;28;20457;-76
2021/03/05 18:42:28;;;;;;;41.90;20.77;;;3.30;65.40;;;;;;8228692;28;20453;-77
2021/03/05 18:46:29;;;;;;;36.60;17.47;;;3.20;65.60;;;;;;8253097;28;20464;-79
2021/03/05 18:50:30;;;;;;;22.10;12.40;;;3.00;66.30;;;;;;8232805;28;20477;-78
2021/03/05 18:54:31;;;;;;;24.37;13.07;;;3.00;66.10;;;;;;8245487;28;21126;-75
2021/03/05 18:58:34;;;;;;;28.80;15.67;;;2.80;67.50;;;;;;8225851;28;20457;-77
2021/03/05 19:02:38;;;;;;;19.13;13.17;;;2.80;68.50;;;;;;8214879;28;20203;-76
2021/03/05 19:06:44;;;;;;;18.73;11.83;;;2.70;68.80;;;;;;8227926;28;20454;-77
2021/03/05 19:10:44;;;;;;;16.27;11.80;;;2.60;69.20;;;;;;8206113;28;20512;-77
2021/03/05 19:14:48;;;;;;;20.97;13.87;;;2.50;69.50;;;;;;8229109;28;20480;-76
2021/03/05 19:18:55;;;;;;;19.67;13.50;;;2.40;69.80;;;;;;8229144;28;20218;-76
2021/03/05 19:22:56;;;;;;;15.73;11.80;;;2.40;70.10;;;;;;8222841;28;20460;-76
2021/03/05 19:27:02;;;;;;;20.10;14.30;;;2.30;70.10;;;;;;8225852;28;21061;-77
2021/03/05 19:31:08;;;;;;;18.43;12.73;;;2.30;70.80;;;;;;8206261;28;20561;-77
2021/03/05 19:35:15;;;;;;;49.50;15.70;;;2.20;71.10;;;;;;8223657;28;20477;-77
2021/03/05 19:39:21;;;;;;;24.13;14.30;;;2.10;71.30;;;;;;8229495;28;20803;-77
2021/03/05 19:43:29;;;;;;;29.80;18.60;;;2.10;71.90;;;;;;8225612;28;20461;-78
2021/03/05 19:47:31;;;;;;;30.27;21.77;;;2.00;71.90;;;;;;8214013;28;20865;-76
2021/03/05 19:51:38;;;;;;;32.80;19.63;;;2.00;72.20;;;;;;8219936;28;20454;-76
2021/03/05 19:55:43;;;;;;;25.03;18.63;;;1.90;72.70;;;;;;8220836;28;20473;-76
2021/03/05 19:59:56;;;;;;;22.43;16.00;;;1.90;73.10;;;;;;8220508;28;20496;-77
2021/03/05 20:04:22;;;;;;;28.20;16.20;;;1.90;73.10;;;;;;8228690;28;20476;-77
2021/03/05 20:08:22;;;;;;;29.87;15.27;;;1.90;73.00;;;;;;8216812;28;20560;-78
2021/03/05 20:12:28;;;;;;;23.50;17.20;;;1.80;73.30;;;;;;8230418;28;20507;-77
2021/03/05 20:16:32;;;;;;;25.70;16.60;;;1.70;73.30;;;;;;8228058;28;20210;-76
2021/03/05 20:20:33;;;;;;;15.13;12.90;;;1.60;73.90;;;;;;8222610;28;20473;-77
2021/03/05 20:24:46;;;;;;;21.13;15.30;;;1.60;73.40;;;;;;8232644;28;20464;-80
2021/03/05 20:28:51;;;;;;;14.00;12.23;;;1.60;73.50;;;;;;8226026;28;20902;-77
2021/03/05 20:32:53;;;;;;;23.20;13.73;;;1.60;73.30;;;;;;8225757;28;20969;-76
2021/03/05 20:36:55;;;;;;;19.40;14.00;;;1.50;73.00;;;;;;8222779;28;20445;-78
2021/03/05 20:40:55;;;;;;;26.43;15.37;;;1.50;72.80;;;;;;8244855;28;20449;-77
2021/03/05 20:44:56;;;;;;;24.93;17.77;;;1.40;72.80;;;;;;8208907;28;20499;-77
2021/03/05 20:49:01;;;;;;;22.93;16.03;;;1.30;73.20;;;;;;8212666;28;20182;-78
2021/03/05 20:53:11;;;;;;;23.97;16.43;;;1.30;73.80;;;;;;8223980;28;20448;-78
2021/03/05 20:57:15;;;;;;;20.30;14.30;;;1.30;74.30;;;;;;8218136;28;20198;-77
2021/03/05 21:01:24;;;;;;;24.60;16.17;;;1.30;74.50;;;;;;8223523;28;20437;-77
2021/03/05 21:05:26;;;;;;;24.40;13.20;;;1.30;74.40;;;;;;8210953;28;20481;-76
2021/03/05 21:09:27;;;;;;;22.40;15.60;;;1.20;74.30;;;;;;8209493;28;20556;-76
2021/03/05 21:13:35;;;;;;;31.73;20.60;;;1.20;74.40;;;;;;8234296;28;20620;-77
2021/03/05 21:17:35;;;;;;;23.27;16.63;;;1.20;74.40;;;;;;8230708;28;20468;-77